Time;durP1;ratioP1;P1;durP2;ratioP2;P2;SDS_P1;SDS_P2;PMS_P1;PMS_P2;Temp;Humidity;BMP_temperature;BMP_pressure;BME280_temperature;BME280_humidity;BME280_pressure;Samples;Min_cycle;Max_cycle;Signal;HPM_P1;HPM_P2
2023/02/23 00:00:34;;;;;;;18.80;8.93;;;;;;;5.51;100.00;95122.25;5009358;28;20548;-74
2023/02/23 00:03:13;;;;;;;19.02;10.10;;;;;;;5.69;100.00;95121.13;5005775;28;20115;-73
2023/02/23 00:05:38;;;;;;;17.70;9.48;;;;;;;5.76;100.00;95128.75;5007161;28;20104;-73
2023/02/23 00:08:04;;;;;;;21.05;9.98;;;;;;;5.65;100.00;95123.44;5008491;28;20042;-73
2023/02/23 00:10:30;;;;;;;18.85;10.25;;;;;;;5.66;100.00;95119.78;5007154;28;20046;-73
2023/02/23 00:12:59;;;;;;;21.65;10.50;;;;;;;5.77;100.00;95125.09;5006221;28;20042;-74
2023/02/23 00:15:26;;;;;;;20.17;10.07;;;;;;;5.77;100.00;95127.72;5007230;28;20048;-73
2023/02/23 00:17:56;;;;;;;23.35;10.00;;;;;;;5.72;100.00;95124.00;5009392;28;20038;-73
2023/02/23 00:20:26;;;;;;;18.58;10.07;;;;;;;5.78;100.00;95126.69;5000992;28;20038;-73
2023/02/23 00:22:54;;;;;;;22.42;10.48;;;;;;;5.85;100.00;95127.28;5010012;28;20041;-73
2023/02/23 00:25:20;;;;;;;22.63;10.73;;;;;;;5.83;100.00;95118.88;4999844;28;20049;-74
2023/02/23 00:27:45;;;;;;;20.65;10.50;;;;;;;5.85;100.00;95122.03;5006812;28;20046;-73
2023/02/23 00:30:13;;;;;;;23.30;11.10;;;;;;;5.92;100.00;95127.84;5005746;28;20057;-74
2023/02/23 00:32:38;;;;;;;24.98;10.90;;;;;;;5.78;100.00;95124.06;5005864;28;20052;-74
2023/02/23 00:35:10;;;;;;;18.98;10.52;;;;;;;5.82;100.00;95122.50;5007143;28;20046;-74
2023/02/23 00:37:36;;;;;;;21.13;10.20;;;;;;;5.84;100.00;95130.91;5008973;28;20096;-73
2023/02/23 00:40:07;;;;;;;23.08;10.98;;;;;;;5.87;100.00;95119.97;5006080;28;20045;-73
2023/02/23 00:42:32;;;;;;;20.77;10.48;;;;;;;5.89;100.00;95128.34;5006991;28;20046;-73
2023/02/23 00:45:05;;;;;;;21.50;10.27;;;;;;;5.66;100.00;95130.25;5008116;28;20095;-73
2023/02/23 00:47:31;;;;;;;29.52;11.52;;;;;;;5.67;100.00;95131.78;5010296;28;20088;-73
2023/02/23 00:49:56;;;;;;;20.25;10.27;;;;;;;5.64;100.00;95127.06;5008482;28;20061;-74
2023/02/23 00:52:22;;;;;;;23.95;11.35;;;;;;;5.56;100.00;95130.16;5009423;28;20096;-73
2023/02/23 00:54:47;;;;;;;21.58;10.43;;;;;;;5.38;100.00;95124.22;5009949;28;20041;-73
2023/02/23 00:57:13;;;;;;;20.40;10.43;;;;;;;5.47;100.00;95126.38;5010119;28;20096;-73
2023/02/23 00:59:38;;;;;;;21.75;11.15;;;;;;;5.47;100.00;95123.78;5020566;28;20049;-73
2023/02/23 01:02:04;;;;;;;20.80;11.23;;;;;;;5.50;100.00;95125.88;5038003;28;20089;-73
2023/02/23 01:04:29;;;;;;;24.00;11.80;;;;;;;5.58;100.00;95129.91;5037577;28;20042;-73
2023/02/23 01:06:55;;;;;;;24.35;10.93;;;;;;;5.70;100.00;95123.50;5039245;28;20081;-73
2023/02/23 01:09:26;;;;;;;21.45;11.15;;;;;;;5.59;100.00;95126.22;5040518;28;20038;-73
2023/02/23 01:11:53;;;;;;;25.08;11.30;;;;;;;5.64;100.00;95123.69;5036416;28;20072;-73
2023/02/23 01:14:19;;;;;;;31.08;12.60;;;;;;;5.87;100.00;95125.97;5039153;28;20048;-73
2023/02/23 01:16:44;;;;;;;26.40;11.98;;;;;;;5.98;100.00;95124.25;5040180;28;20021;-72
2023/02/23 01:19:10;;;;;;;23.15;11.35;;;;;;;6.04;100.00;95131.09;5040014;28;20026;-72
2023/02/23 01:21:38;;;;;;;20.60;11.60;;;;;;;6.15;100.00;95128.56;5034033;28;20080;-73
2023/02/23 01:24:05;;;;;;;20.52;11.32;;;;;;;5.96;100.00;95134.16;5023695;28;20045;-73
2023/02/23 01:26:33;;;;;;;28.33;11.77;;;;;;;5.88;100.00;95137.22;5012925;28;20417;-73
2023/02/23 01:29:02;;;;;;;24.38;11.50;;;;;;;5.95;100.00;95137.00;5008613;28;20095;-73
2023/02/23 01:31:28;;;;;;;28.48;12.20;;;;;;;5.85;100.00;95137.72;5011650;28;20625;-74
2023/02/23 01:34:00;;;;;;;25.70;12.02;;;;;;;5.89;100.00;95136.19;5005318;28;20053;-73
2023/02/23 01:36:29;;;;;;;23.35;11.75;;;;;;;5.94;100.00;95136.22;5010325;28;20038;-73
2023/02/23 01:38:58;;;;;;;22.95;12.10;;;;;;;5.95;100.00;95127.34;5011667;28;20382;-73
2023/02/23 01:41:25;;;;;;;24.25;12.38;;;;;;;6.04;100.00;95125.09;5006561;28;20108;-73
2023/02/23 01:44:05;;;;;;;27.27;11.85;;;;;;;6.04;100.00;95120.66;5008246;28;20048;-73
2023/02/23 01:46:37;;;;;;;25.75;12.25;;;;;;;6.04;100.00;95125.88;5011576;28;20667;-74
2023/02/23 01:49:07;;;;;;;24.60;11.85;;;;;;;6.13;100.00;95117.59;5007100;28;20046;-73
2023/02/23 01:51:38;;;;;;;26.35;12.35;;;;;;;6.23;100.00;95122.88;5010438;28;20128;-73
2023/02/23 01:54:09;;;;;;;26.52;12.85;;;;;;;6.24;100.00;95121.84;5008825;28;20050;-73
2023/02/23 01:56:44;;;;;;;24.17;12.05;;;;;;;6.16;100.00;95127.53;5009699;28;20095;-73
2023/02/23 01:59:12;;;;;;;22.17;12.20;;;;;;;6.03;100.00;95119.09;5008127;28;20038;-73
2023/02/23 02:01:41;;;;;;;27.25;13.18;;;;;;;6.03;100.00;95124.31;5012189;28;20038;-73
2023/02/23 02:04:08;;;;;;;26.52;12.65;;;;;;;6.05;100.00;95117.00;5003788;28;20050;-74
2023/02/23 02:06:36;;;;;;;24.13;12.82;;;;;;;5.93;100.00;95116.34;5009032;28;20041;-73
2023/02/23 02:09:15;;;;;;;26.05;12.77;;;;;;;5.85;100.00;95116.81;5009354;28;20060;-73
2023/02/23 02:11:43;;;;;;;25.10;12.68;;;;;;;5.86;100.00;95123.59;5001580;28;20045;-73
2023/02/23 02:14:14;;;;;;;23.73;11.65;;;;;;;5.79;100.00;95117.78;5008550;28;20046;-73
2023/02/23 02:17:04;;;;;;;29.58;12.98;;;;;;;5.73;100.00;95109.94;5007399;28;20038;-73
2023/02/23 02:20:13;;;;;;;24.10;12.95;;;;;;;5.64;100.00;95108.78;5002664;28;20041;-73
2023/02/23 02:22:41;;;;;;;27.52;12.98;;;;;;;5.57;100.00;95105.59;5008490;28;20041;-73
2023/02/23 02:25:25;;;;;;;25.17;12.35;;;;;;;5.50;100.00;95105.00;5008001;28;20041;-73
2023/02/23 02:28:07;;;;;;;25.48;12.60;;;;;;;5.36;100.00;95100.19;5007611;28;20042;-73
2023/02/23 02:30:48;;;;;;;24.85;12.07;;;;;;;5.24;100.00;95096.91;5004834;28;20072;-72
2023/02/23 02:33:42;;;;;;;29.90;12.45;;;;;;;5.24;100.00;95096.91;5005034;28;20157;-72
2023/02/23 02:36:40;;;;;;;27.50;12.57;;;;;;;5.22;100.00;95099.00;5001568;28;20058;-72
2023/02/23 02:39:35;;;;;;;25.42;12.65;;;;;;;5.27;100.00;95101.69;5010788;28;20038;-73
2023/02/23 02:42:26;;;;;;;31.25;13.32;;;;;;;5.26;100.00;95100.09;5004932;28;20537;-73
2023/02/23 02:45:01;;;;;;;22.35;11.77;;;;;;;5.35;100.00;95096.00;5010474;28;20494;-73
2023/02/23 02:47:41;;;;;;;27.88;12.95;;;;;;;5.35;100.00;95088.16;5010105;28;20030;-73
2023/02/23 02:50:13;;;;;;;25.67;12.32;;;;;;;5.49;100.00;95096.41;5005615;28;20053;-73
2023/02/23 02:52:48;;;;;;;29.92;12.38;;;;;;;5.52;100.00;95102.94;5006279;28;20060;-73
2023/02/23 02:55:25;;;;;;;30.40;12.88;;;;;;;5.55;100.00;95107.69;5008774;28;20049;-73
2023/02/23 02:57:55;;;;;;;24.05;12.38;;;;;;;5.52;100.00;95092.50;5008218;28;20041;-74
2023/02/23 04:18:27;;;;;;;20.92;9.82;;;;;;;3.81;100.00;95114.88;5007982;28;20045;-72
2023/02/23 04:20:54;;;;;;;21.75;11.10;;;;;;;3.59;100.00;95115.56;5005112;28;20477;-72
2023/02/23 04:23:21;;;;;;;22.25;11.30;;;;;;;3.67;100.00;95116.19;5008181;28;20076;-72
2023/02/23 04:25:48;;;;;;;22.92;10.45;;;;;;;3.67;100.00;95116.19;5009463;28;20038;-72
2023/02/23 04:28:14;;;;;;;22.65;10.65;;;;;;;3.56;100.00;95121.25;5007165;28;20046;-72
2023/02/23 04:30:40;;;;;;;24.15;11.68;;;;;;;3.52;100.00;95122.72;5005702;28;20118;-72
2023/02/23 04:33:06;;;;;;;22.73;11.15;;;;;;;3.49;100.00;95125.00;5005619;28;20653;-72
2023/02/23 04:35:32;;;;;;;25.15;11.70;;;;;;;3.49;100.00;95117.97;5002924;28;20045;-72
2023/02/23 04:37:57;;;;;;;21.35;10.50;;;;;;;3.41;100.00;95123.56;5005675;28;20034;-72
2023/02/23 04:40:23;;;;;;;22.88;11.65;;;;;;;3.35;100.00;95119.28;5006135;28;20041;-72
2023/02/23 04:42:49;;;;;;;24.10;10.73;;;;;;;3.27;100.00;95129.03;5000669;28;20038;-73
2023/02/23 04:45:15;;;;;;;23.98;11.50;;;;;;;3.22;100.00;95123.75;5001954;28;20045;-73
2023/02/23 04:47:40;;;;;;;23.58;10.88;;;;;;;3.20;100.00;95128.38;5006816;28;20065;-74
2023/02/23 04:50:07;;;;;;;22.08;10.82;;;;;;;3.19;100.00;95121.63;5008654;28;20053;-73
2023/02/23 04:52:33;;;;;;;23.23;11.75;;;;;;;3.11;100.00;95124.56;5005287;28;20038;-73
2023/02/23 04:54:59;;;;;;;18.48;10.32;;;;;;;3.09;100.00;95131.81;5008689;28;20068;-73
2023/02/23 04:57:26;;;;;;;25.40;12.15;;;;;;;3.04;100.00;95134.31;5006152;28;20042;-73
2023/02/23 04:59:51;;;;;;;22.92;11.90;;;;;;;3.00;100.00;95130.59;5006394;28;20048;-73
2023/02/23 05:02:17;;;;;;;28.60;10.95;;;;;;;2.97;100.00;95133.66;4995417;28;20129;-73
2023/02/23 05:04:43;;;;;;;20.75;10.65;;;;;;;2.92;100.00;95135.13;5004689;28;20049;-73
2023/02/23 05:07:09;;;;;;;24.17;10.43;;;;;;;2.90;100.00;95128.59;5007661;28;20045;-74
2023/02/23 05:09:34;;;;;;;21.90;10.63;;;;;;;2.84;100.00;95132.88;5007430;28;20056;-72
2023/02/23 05:12:00;;;;;;;21.48;10.18;;;;;;;2.81;100.00;95130.75;5002035;28;20038;-73
2023/02/23 05:14:26;;;;;;;22.95;10.82;;;;;;;2.76;100.00;95128.06;5004690;28;20493;-74
2023/02/23 05:16:52;;;;;;;20.98;10.73;;;;;;;2.75;100.00;95131.69;5007567;28;20092;-72
2023/02/23 05:19:17;;;;;;;23.25;10.50;;;;;;;2.74;100.00;95132.69;5003758;28;20034;-73
2023/02/23 05:21:43;;;;;;;24.67;10.65;;;;;;;2.73;100.00;95133.69;5000239;28;20152;-72
2023/02/23 05:24:09;;;;;;;24.48;10.85;;;;;;;2.73;100.00;95125.91;5006216;28;20053;-73
2023/02/23 05:26:35;;;;;;;24.65;11.63;;;;;;;2.71;100.00;95130.53;5007538;28;20038;-73
2023/02/23 05:29:00;;;;;;;32.28;11.57;;;;;;;2.67;100.00;95134.63;5004781;28;20513;-73
2023/02/23 05:31:27;;;;;;;19.63;10.35;;;;;;;2.68;100.00;95131.00;5007759;28;20580;-74
2023/02/23 05:33:52;;;;;;;25.38;10.82;;;;;;;2.74;100.00;95130.09;5003933;28;20641;-73
2023/02/23 05:36:20;;;;;;;25.05;11.43;;;;;;;2.68;100.00;95131.00;5007118;28;20046;-73
2023/02/23 05:38:47;;;;;;;23.58;11.02;;;;;;;2.62;100.00;95132.72;5006037;28;20458;-73
2023/02/23 05:41:16;;;;;;;23.25;10.27;;;;;;;2.67;100.00;95139.81;5007492;28;20046;-73
2023/02/23 05:43:42;;;;;;;31.75;11.10;;;;;;;2.66;100.00;95133.84;5008411;28;20501;-73
2023/02/23 05:46:15;;;;;;;25.15;11.65;;;;;;;2.68;100.00;95136.97;5010749;28;20042;-73
2023/02/23 05:48:40;;;;;;;25.75;10.63;;;;;;;2.68;100.00;95136.97;5011451;28;20073;-74
2023/02/23 05:51:09;;;;;;;20.73;10.35;;;;;;;2.76;100.00;95143.66;5007599;28;20041;-73
2023/02/23 05:53:35;;;;;;;21.00;10.13;;;;;;;2.74;100.00;95136.09;5010651;28;20112;-74
2023/02/23 05:56:02;;;;;;;21.63;11.00;;;;;;;2.75;100.00;95142.06;5007693;28;20088;-74
2023/02/23 05:58:28;;;;;;;23.95;11.07;;;;;;;2.73;100.00;95146.69;5008164;28;20074;-73
2023/02/23 06:00:55;;;;;;;24.58;10.38;;;;;;;2.74;100.00;95145.69;5005992;28;20069;-73
2023/02/23 06:03:21;;;;;;;30.95;11.13;;;;;;;2.79;100.00;95145.78;5003415;28;20133;-73
2023/02/23 06:05:51;;;;;;;25.13;10.77;;;;;;;2.80;100.00;95144.75;5010569;28;20426;-73
2023/02/23 06:08:17;;;;;;;20.90;10.80;;;;;;;2.83;100.00;95154.72;5007890;28;20493;-74
2023/02/23 06:10:43;;;;;;;23.35;11.40;;;;;;;2.86;100.00;95149.06;5005412;28;20046;-74
2023/02/23 06:13:09;;;;;;;20.38;10.65;;;;;;;2.91;100.00;95149.16;5008030;28;20556;-74
2023/02/23 06:15:34;;;;;;;20.88;10.25;;;;;;;2.93;100.00;95149.72;5010547;28;20046;-74
2023/02/23 06:18:00;;;;;;;20.85;10.85;;;;;;;2.94;100.00;95151.31;5008311;28;20525;-74
2023/02/23 06:20:25;;;;;;;21.83;10.70;;;;;;;2.96;100.00;95153.69;5008426;28;20034;-73
2023/02/23 06:22:51;;;;;;;24.08;11.23;;;;;;;3.05;100.00;95159.31;5010104;28;20038;-73
2023/02/23 06:25:16;;;;;;;24.35;10.65;;;;;;;3.12;100.00;95167.75;5004995;28;20495;-74
2023/02/23 06:27:42;;;;;;;24.85;11.18;;;;;;;3.16;100.00;95163.69;5009984;28;20477;-74
2023/02/23 06:30:09;;;;;;;21.05;10.05;;;;;;;3.19;100.00;95158.03;5005482;28;20115;-73
2023/02/23 06:32:35;;;;;;;21.17;10.68;;;;;;;3.18;100.00;95159.03;5002561;28;20042;-74
2023/02/23 06:35:01;;;;;;;23.35;11.68;;;;;;;3.23;100.00;95164.34;5005987;28;20048;-74
2023/02/23 06:37:26;;;;;;;24.90;12.07;;;;;;;3.28;100.00;95169.63;5008633;28;20029;-74
2023/02/23 06:39:52;;;;;;;22.70;10.95;;;;;;;3.37;100.00;95179.66;5007693;28;20641;-74
2023/02/23 06:42:17;;;;;;;28.13;11.73;;;;;;;3.46;100.00;95175.66;5008615;28;20493;-75
2023/02/23 06:44:43;;;;;;;26.73;11.35;;;;;;;3.61;100.00;95175.94;5011799;28;20050;-75
2023/02/23 06:47:09;;;;;;;24.60;11.00;;;;;;;3.67;100.00;95174.22;5010449;28;20053;-74
2023/02/23 06:49:35;;;;;;;23.77;11.40;;;;;;;3.74;100.00;95179.31;5011567;28;20409;-74
2023/02/23 06:52:01;;;;;;;29.83;11.68;;;;;;;3.83;100.00;95183.09;5003738;28;20034;-73
2023/02/23 06:54:26;;;;;;;22.42;10.90;;;;;;;3.88;100.00;95184.97;5010318;28;20042;-73
2023/02/23 06:56:54;;;;;;;22.67;10.98;;;;;;;3.91;100.00;95184.53;5010840;28;20042;-73
2023/02/23 06:59:20;;;;;;;22.52;11.27;;;;;;;3.99;100.00;95187.53;5004700;28;20038;-74
2023/02/23 07:01:45;;;;;;;21.77;10.98;;;;;;;4.03;100.00;95177.44;5004300;28;20409;-76
2023/02/23 07:04:11;;;;;;;25.13;11.30;;;;;;;4.11;100.00;95182.25;5006317;28;20616;-75
2023/02/23 07:06:36;;;;;;;27.15;10.65;;;;;;;4.20;100.00;95182.66;5006955;28;20049;-76
2023/02/23 07:09:04;;;;;;;23.02;10.60;;;;;;;4.25;100.00;95184.53;5010212;28;20363;-76
2023/02/23 07:11:30;;;;;;;28.02;10.55;;;;;;;4.25;100.00;95185.34;5006611;28;20065;-75
2023/02/23 07:14:00;;;;;;;30.23;11.32;;;;;;;4.32;100.00;95180.78;5011104;28;20044;-75
2023/02/23 07:16:27;;;;;;;22.95;10.50;;;;;;;4.40;100.00;95186.63;5006047;28;20453;-76
2023/02/23 07:18:56;;;;;;;23.42;10.95;;;;;;;4.33;100.00;95182.34;5010604;28;20184;-75
2023/02/23 07:21:21;;;;;;;22.45;10.55;;;;;;;4.43;100.00;95186.91;5004274;28;20112;-75
2023/02/23 07:23:48;;;;;;;22.00;10.43;;;;;;;4.54;100.00;95187.88;5009926;28;20045;-73
2023/02/23 07:26:15;;;;;;;23.08;11.43;;;;;;;4.64;100.00;95182.78;5008650;28;20089;-78
2023/02/23 07:28:42;;;;;;;27.98;11.80;;;;;;;4.71;100.00;95181.81;5009460;28;20670;-76
2023/02/23 07:31:07;;;;;;;27.17;10.85;;;;;;;4.79;100.00;95178.81;5011039;28;20045;-74
2023/02/23 07:33:33;;;;;;;20.42;10.73;;;;;;;4.87;100.00;95181.03;5001733;28;20456;-76
2023/02/23 07:35:58;;;;;;;26.95;10.80;;;;;;;4.95;100.00;95188.41;5010123;28;20749;-75
2023/02/23 07:38:24;;;;;;;26.67;10.70;;;;;;;5.05;100.00;95186.97;5008444;28;20038;-75
2023/02/23 07:40:50;;;;;;;22.27;11.23;;;;;;;5.18;100.00;95176.16;5006042;28;20088;-76
2023/02/23 07:43:16;;;;;;;28.35;10.38;;;;;;;5.32;100.00;95182.59;5004864;28;20095;-72
2023/02/23 07:45:42;;;;;;;23.25;11.15;;;;;;;5.45;100.00;95185.88;5007031;28;20038;-72
2023/02/23 07:48:08;;;;;;;23.92;10.73;;;;;;;5.61;100.00;95185.00;5010753;28;20096;-75
2023/02/23 07:50:34;;;;;;;27.20;11.43;;;;;;;5.85;100.00;95190.72;5004936;28;20649;-75
2023/02/23 07:53:00;;;;;;;28.85;12.35;;;;;;;6.02;100.00;95190.66;5006002;28;20052;-75
2023/02/23 07:55:26;;;;;;;25.27;10.68;;;;;;;6.21;100.00;95192.91;5008934;28;20116;-75
2023/02/23 07:57:52;;;;;;;25.50;12.07;;;;;;;6.32;100.00;95194.56;5010497;28;20038;-75
2023/02/23 08:00:18;;;;;;;26.13;12.13;;;;;;;6.43;100.00;95195.41;5008030;28;20208;-75
2023/02/23 08:02:43;;;;;;;28.77;14.23;;;;;;;6.53;100.00;95189.47;5005336;28;20081;-75
2023/02/23 08:05:09;;;;;;;32.72;14.43;;;;;;;6.66;100.00;95189.03;5007142;28;20073;-75
2023/02/23 08:07:35;;;;;;;32.30;14.50;;;;;;;6.71;100.00;95196.91;5008057;28;20034;-75
2023/02/23 08:10:00;;;;;;;37.92;15.82;;;;;;;6.80;100.00;95193.84;5010081;28;20425;-75
2023/02/23 08:12:26;;;;;;;35.78;15.25;;;;;;;6.83;100.00;95195.94;5004539;28;20061;-75
2023/02/23 08:14:52;;;;;;;32.88;14.43;;;;;;;6.90;100.00;95204.34;5006540;28;20134;-75
2023/02/23 08:17:18;;;;;;;40.38;15.15;;;;;;;6.98;100.00;95201.25;5001981;28;20092;-74
2023/02/23 08:19:44;;;;;;;29.00;14.23;;;;;;;7.06;100.00;95192.91;5006005;28;20121;-74
2023/02/23 08:22:12;;;;;;;33.80;14.57;;;;;;;7.21;100.00;95200.06;5006952;28;20042;-74
2023/02/23 08:24:38;;;;;;;36.58;14.82;;;;;;;7.25;100.00;95200.34;5009898;28;20103;-74
2023/02/23 08:27:03;;;;;;;37.97;14.90;;;;;;;7.32;100.00;95200.88;5009643;28;20437;-76
2023/02/23 08:29:29;;;;;;;35.88;15.63;;;;;;;7.28;100.00;95194.59;5008894;28;20471;-74
2023/02/23 08:31:55;;;;;;;41.03;15.68;;;;;;;7.38;100.00;95196.47;5008082;28;20038;-74
2023/02/23 08:34:21;;;;;;;35.53;15.52;;;;;;;7.45;100.00;95200.41;5007069;28;20038;-74
2023/02/23 08:36:48;;;;;;;38.53;15.15;;;;;;;7.49;100.00;95199.91;5012314;28;20088;-75
2023/02/23 08:39:13;;;;;;;35.78;14.68;;;;;;;7.64;100.00;95197.31;5009503;28;20758;-75
2023/02/23 08:41:40;;;;;;;31.80;14.25;;;;;;;7.73;100.00;95201.03;5005360;28;20041;-74
2023/02/23 08:44:06;;;;;;;28.75;13.27;;;;;;;7.73;100.00;95194.97;5007476;28;20061;-75
2023/02/23 08:46:32;;;;;;;33.38;14.18;;;;;;;7.78;100.00;95187.94;5010259;28;20034;-75
2023/02/23 08:48:58;;;;;;;31.73;14.45;;;;;;;7.87;100.00;95196.06;5008044;28;20038;-75
2023/02/23 08:51:24;;;;;;;32.15;14.38;;;;;;;7.83;100.00;95181.94;5006220;28;20050;-75
2023/02/23 08:53:49;;;;;;;34.50;14.52;;;;;;;7.97;100.00;95190.88;5010170;28;20038;-75
2023/02/23 08:56:15;;;;;;;29.80;14.80;;;;;;;8.09;100.00;95192.44;5010143;28;20510;-75
2023/02/23 08:58:41;;;;;;;29.25;13.57;;;;;;;8.03;100.00;95199.53;5007873;28;20034;-75
2023/02/23 09:01:16;;;;;;;35.83;14.57;;;;;;;8.25;100.00;95198.47;5007878;28;20413;-75
2023/02/23 09:03:42;;;;;;;32.67;14.35;;;;;;;8.32;100.00;95197.16;5007392;28;20038;-75
2023/02/23 09:06:11;;;;;;;32.08;14.27;;;;;;;8.26;100.00;95192.19;5008532;28;20437;-75
2023/02/23 09:08:37;;;;;;;37.55;15.55;;;;;;;8.43;100.00;95192.72;5009468;28;20585;-75
2023/02/23 09:11:03;;;;;;;38.17;15.38;;;;;;;8.79;100.00;95184.84;5009661;28;20042;-75
2023/02/23 09:13:28;;;;;;;37.08;16.35;;;;;;;8.72;100.00;95183.53;5007029;28;20555;-75
2023/02/23 09:15:54;;;;;;;35.58;16.02;;;;;;;8.69;100.00;95195.31;5011991;28;20042;-75
2023/02/23 09:18:21;;;;;;;32.65;14.93;;;;;;;8.60;100.00;95194.31;5012550;28;20518;-75
2023/02/23 09:20:47;;;;;;;35.03;14.27;;;;;;;8.73;100.00;95191.13;5013764;28;20083;-75
2023/02/23 09:23:12;;;;;;;37.35;16.98;;;;;;;8.90;100.00;95195.31;5010882;28;20513;-75
2023/02/23 09:25:42;;;;;;;37.63;16.02;;;;;;;8.86;100.00;95194.25;5013517;28;20053;-75
2023/02/23 09:28:18;;;;;;;37.08;15.52;;;;;;;8.98;100.00;95198.19;5013315;28;20053;-75
2023/02/23 09:30:45;;;;;;;34.17;14.77;;;;;;;9.02;100.00;95201.03;5012571;28;20124;-75
2023/02/23 09:33:11;;;;;;;39.53;15.55;;;;;;;8.90;100.00;95201.34;5000039;28;20046;-74
2023/02/23 09:35:38;;;;;;;37.88;14.82;;;;;;;8.99;100.00;95201.56;5013064;28;20050;-75
2023/02/23 09:38:05;;;;;;;33.25;14.35;;;;;;;9.30;100.00;95197.03;5012574;28;20065;-75
2023/02/23 09:40:57;;;;;;;36.47;15.57;;;;;;;9.32;100.00;95197.56;5012370;28;20100;-75
2023/02/23 09:43:51;;;;;;;30.52;14.32;;;;;;;9.33;100.00;95203.59;5001608;28;20056;-75
2023/02/23 09:46:37;;;;;;;30.38;13.23;;;;;;;9.50;100.00;95198.78;5001435;28;20053;-75
2023/02/23 09:49:04;;;;;;;32.63;13.88;;;;;;;9.56;100.00;95201.41;5009651;28;20498;-75
2023/02/23 09:51:37;;;;;;;28.02;12.90;;;;;;;9.45;100.00;95200.66;5005736;28;20056;-74
2023/02/23 09:54:07;;;;;;;34.03;13.70;;;;;;;9.77;100.00;95202.06;5010731;28;20061;-76
2023/02/23 09:56:36;;;;;;;30.73;13.48;;;;;;;9.78;100.00;95209.66;5008749;28;20112;-75
2023/02/23 09:59:04;;;;;;;29.35;12.75;;;;;;;9.93;100.00;95205.38;5002273;28;20522;-75
2023/02/23 10:01:53;;;;;;;30.98;12.23;;;;;;;9.97;100.00;95201.97;5021666;28;20038;-76
2023/02/23 10:04:25;;;;;;;29.15;12.00;;;;;;;10.00;100.00;95211.16;5006583;28;20505;-76
2023/02/23 10:07:02;;;;;;;25.25;11.57;;;;;;;10.25;100.00;95201.53;5010090;28;20048;-77
2023/02/23 10:09:57;;;;;;;30.23;11.82;;;;;;;10.08;100.00;95215.81;5008043;28;20034;-77
2023/02/23 10:12:39;;;;;;;30.55;12.55;;;;;;;9.81;100.00;95209.16;5006391;28;20050;-76
2023/02/23 10:15:11;;;;;;;31.38;13.20;;;;;;;9.92;100.00;95203.84;5009866;28;20034;-78
2023/02/23 10:18:02;;;;;;;27.02;11.40;;;;;;;9.86;100.00;95206.47;5010678;28;20033;-77
2023/02/23 10:20:53;;;;;;;27.30;12.40;;;;;;;10.02;100.00;95198.50;5010247;28;20482;-76
2023/02/23 10:23:26;;;;;;;26.13;11.60;;;;;;;9.96;100.00;95207.50;5012133;28;20042;-74
2023/02/23 10:25:58;;;;;;;30.00;11.68;;;;;;;10.04;100.00;95207.69;5007762;28;20525;-75
2023/02/23 10:28:24;;;;;;;26.63;11.90;;;;;;;10.44;100.00;95199.81;5003838;28;20120;-75
2023/02/23 10:30:53;;;;;;;27.50;12.45;;;;;;;10.27;100.00;95210.72;5008455;28;20065;-74
2023/02/23 10:33:33;;;;;;;29.27;12.20;;;;;;;10.70;100.00;95202.22;5005893;28;20104;-76
2023/02/23 10:36:27;;;;;;;22.48;10.88;;;;;;;10.73;100.00;95201.66;5012138;28;20386;-75
2023/02/23 10:38:53;;;;;;;27.98;11.80;;;;;;;10.45;100.00;95198.75;5021316;28;20041;-76
2023/02/23 10:41:19;;;;;;;29.23;10.80;;;;;;;10.62;100.00;95203.63;5012245;28;20056;-76
2023/02/23 10:43:46;;;;;;;43.13;13.20;;;;;;;10.62;100.00;95200.22;5008284;28;20034;-77
2023/02/23 10:46:21;;;;;;;28.83;11.85;;;;;;;10.58;100.00;95195.47;5010093;28;20557;-75
2023/02/23 10:48:49;;;;;;;27.08;11.90;;;;;;;10.55;100.00;95198.66;5005374;28;20034;-76
2023/02/23 10:51:28;;;;;;;27.95;13.05;;;;;;;10.20;100.00;95194.44;5008198;28;20164;-74
2023/02/23 10:53:54;;;;;;;28.98;10.80;;;;;;;10.23;100.00;95189.41;5003688;28;20128;-75
2023/02/23 10:56:21;;;;;;;30.63;11.35;;;;;;;10.34;100.00;95197.25;5005945;28;20042;-75
2023/02/23 10:58:53;;;;;;;30.67;11.13;;;;;;;10.40;100.00;95193.53;5009980;28;20437;-76
2023/02/23 11:01:43;;;;;;;25.15;10.40;;;;;;;10.91;100.00;95190.44;5012454;28;20042;-75
2023/02/23 11:04:25;;;;;;;27.67;9.80;;;;;;;10.71;100.00;95182.75;5003830;28;20045;-75
2023/02/23 11:07:10;;;;;;;20.50;9.13;;;;;;;10.48;100.00;95192.16;5011066;28;20120;-76
2023/02/23 11:09:36;;;;;;;24.40;9.40;;;;;;;10.58;100.00;95187.59;5006856;28;20041;-77
2023/02/23 11:12:24;;;;;;;20.98;9.02;;;;;;;10.47;100.00;95187.94;5009664;28;20048;-75
2023/02/23 11:14:55;;;;;;;17.73;7.60;;;;;;;10.52;100.00;95186.06;5012219;28;20060;-76
2023/02/23 11:17:30;;;;;;;23.75;8.40;;;;;;;10.62;100.00;95184.41;5008435;28;20429;-74
2023/02/23 11:20:17;;;;;;;25.00;8.10;;;;;;;10.71;100.00;95178.25;5010672;28;20092;-72
2023/02/23 11:22:43;;;;;;;20.75;8.75;;;;;;;10.64;100.00;95177.81;5004775;28;20042;-74
2023/02/23 11:25:16;;;;;;;21.23;7.93;;;;;;;10.94;100.00;95175.16;5010585;28;20516;-74
2023/02/23 11:27:50;;;;;;;20.33;8.15;;;;;;;11.07;100.00;95166.59;5003372;28;20461;-76
2023/02/23 11:30:20;;;;;;;17.48;7.43;;;;;;;11.35;100.00;95172.06;5009619;28;20042;-76
2023/02/23 11:32:51;;;;;;;17.08;7.85;;;;;;;11.43;100.00;95166.16;5002506;28;20038;-76
2023/02/23 11:35:19;;;;;;;17.50;7.45;;;;;;;11.17;100.00;95169.09;5009536;28;20148;-76
2023/02/23 11:37:45;;;;;;;16.52;7.55;;;;;;;11.11;100.00;95167.59;5014715;28;20069;-75
2023/02/23 11:40:28;;;;;;;16.38;7.60;;;;;;;11.01;100.00;95165.09;5013410;28;20042;-75
2023/02/23 11:43:08;;;;;;;16.17;7.10;;;;;;;11.03;100.00;95155.84;5008196;28;20064;-75
2023/02/23 11:45:48;;;;;;;17.02;7.13;;;;;;;11.34;100.00;95152.06;5009679;28;20057;-73
2023/02/23 11:48:22;;;;;;;15.07;6.90;;;;;;;11.70;100.00;95159.50;5013949;28;20072;-72
2023/02/23 11:50:48;;;;;;;16.70;6.97;;;;;;;12.05;100.00;95160.88;5029289;28;20042;-74
2023/02/23 11:53:16;;;;;;;19.88;7.13;;;;;;;12.81;100.00;95154.63;5012352;28;20045;-74
2023/02/23 11:55:48;;;;;;;20.00;7.55;;;;;;;13.27;100.00;95145.81;5017636;28;20509;-75
2023/02/23 11:58:38;;;;;;;20.17;7.68;;;;;;;12.79;100.00;95140.94;5021710;28;20054;-75
2023/02/23 12:01:22;;;;;;;18.98;8.02;;;;;;;13.15;100.00;95137.63;5003245;28;20093;-75
2023/02/23 12:03:50;;;;;;;20.08;7.72;;;;;;;13.54;100.00;95131.03;5009058;28;20168;-75
2023/02/23 12:06:29;;;;;;;20.85;8.20;;;;;;;14.41;99.76;95143.38;5001229;28;20529;-75
2023/02/23 12:09:01;;;;;;;19.85;7.93;;;;;;;15.48;90.20;95131.81;5010903;28;20072;-74
2023/02/23 12:11:36;;;;;;;21.08;8.45;;;;;;;16.76;77.26;95129.72;5006209;28;20038;-74
2023/02/23 12:14:10;;;;;;;19.33;8.00;;;;;;;15.11;90.75;95123.31;5013662;28;20479;-74
2023/02/23 12:16:46;;;;;;;17.48;6.82;;;;;;;13.74;94.95;95127.19;5016452;28;20074;-75
2023/02/23 12:19:24;;;;;;;11.32;5.78;;;;;;;13.07;97.82;95125.09;5025091;28;20029;-74
2023/02/23 12:22:05;;;;;;;11.13;4.78;;;;;;;13.05;96.57;95127.25;5028427;28;20026;-74
2023/02/23 12:25:03;;;;;;;12.80;5.20;;;;;;;12.42;100.00;95134.72;5046851;28;20109;-75
2023/02/23 12:27:49;;;;;;;13.52;5.82;;;;;;;13.18;98.18;95118.53;5027700;28;20042;-75
2023/02/23 12:30:21;;;;;;;9.85;5.20;;;;;;;13.97;92.02;95114.75;5034493;28;20086;-74
2023/02/23 12:32:55;;;;;;;12.70;5.47;;;;;;;13.50;92.52;95112.38;5035229;28;20093;-75
2023/02/23 12:35:28;;;;;;;12.05;5.82;;;;;;;12.52;100.00;95121.34;5045191;28;20064;-76
2023/02/23 12:38:02;;;;;;;17.27;8.10;;;;;;;12.67;100.00;95106.31;5032547;28;20038;-76
2023/02/23 12:40:34;;;;;;;19.88;9.00;;;;;;;11.94;100.00;95112.00;5022669;28;20062;-77
2023/02/23 12:43:12;;;;;;;24.20;9.80;;;;;;;12.21;100.00;95113.94;5006551;28;20485;-76
2023/02/23 12:45:44;;;;;;;20.40;9.93;;;;;;;11.59;100.00;95117.47;5012260;28;20042;-77
2023/02/23 12:48:35;;;;;;;20.95;10.00;;;;;;;11.57;100.00;95113.56;5013443;28;20038;-77